Time;durP1;ratioP1;P1;durP2;ratioP2;P2;SDS_P1;SDS_P2;PMS_P1;PMS_P2;Temp;Humidity;BMP_temperature;BMP_pressure;BME280_temperature;BME280_humidity;BME280_pressure;Samples;Min_cycle;Max_cycle;Signal;HPM_P1;HPM_P2
2022/05/26 00:01:34;;;;;;;4.45;1.40;;;;;;;18.02;46.96;100797.89;1706175;84;25483;-54
2022/05/26 00:04:03;;;;;;;8.08;1.25;;;;;;;17.98;46.63;100799.61;1706428;83;27475;-53
2022/05/26 00:06:30;;;;;;;5.10;1.12;;;;;;;17.96;46.35;100796.22;1703211;84;25776;-55
2022/05/26 00:08:58;;;;;;;7.80;1.20;;;;;;;17.96;46.38;100796.22;1713739;81;25710;-55
2022/05/26 00:11:32;;;;;;;7.72;1.52;;;;;;;17.91;46.64;100804.57;1753899;81;25826;-54
2022/05/26 00:14:07;;;;;;;4.12;0.90;;;;;;;17.84;46.68;100801.73;1747682;81;25731;-54
2022/05/26 00:16:31;;;;;;;2.80;0.98;;;;;;;17.80;46.54;100799.89;1750494;81;27376;-54
2022/05/26 00:18:57;;;;;;;6.95;1.30;;;;;;;17.74;46.62;100799.80;1733367;80;25915;-55
2022/05/26 00:21:24;;;;;;;9.95;1.80;;;;;;;17.72;46.64;100790.44;1742131;81;25739;-55
2022/05/26 00:23:57;;;;;;;7.75;1.20;;;;;;;17.72;46.65;100803.21;1743923;81;26544;-55
2022/05/26 00:26:25;;;;;;;5.22;1.10;;;;;;;17.73;46.52;100796.22;1740325;81;25960;-54
2022/05/26 00:28:52;;;;;;;5.47;1.45;;;;;;;17.74;46.51;100797.91;1722168;81;28230;-54
2022/05/26 00:31:20;;;;;;;7.78;1.00;;;;;;;17.74;46.47;100796.55;1715745;83;25744;-55
2022/05/26 00:33:47;;;;;;;8.65;1.12;;;;;;;17.73;46.56;100794.86;1726159;82;25747;-54
2022/05/26 00:36:17;;;;;;;3.33;0.90;;;;;;;17.71;46.55;100805.07;1727979;82;25816;-54
2022/05/26 00:38:44;;;;;;;1.85;1.00;;;;;;;17.69;46.70;100811.23;1721928;82;25769;-55
2022/05/26 00:41:14;;;;;;;3.17;0.72;;;;;;;17.67;46.83;100808.67;1726089;82;27551;-55
2022/05/26 00:43:44;;;;;;;4.90;1.32;;;;;;;17.64;47.20;100799.53;1726029;81;25768;-53
2022/05/26 00:46:40;;;;;;;1.87;0.93;;;;;;;17.59;46.87;100811.98;1728620;81;25482;-55
2022/05/26 00:49:13;;;;;;;3.27;1.10;;;;;;;17.58;46.83;100817.09;1725030;81;25985;-53
2022/05/26 00:51:40;;;;;;;4.75;1.30;;;;;;;17.55;47.60;100817.44;1720427;83;25744;-55
2022/05/26 00:54:14;;;;;;;1.92;1.10;;;;;;;17.49;47.22;100815.79;1724161;81;27470;-53
2022/05/26 00:56:46;;;;;;;5.65;1.10;;;;;;;17.46;47.16;100814.78;1706607;82;25862;-54
2022/05/26 00:59:21;;;;;;;3.47;1.05;;;;;;;17.44;47.16;100812.75;1700531;84;25829;-55
2022/05/26 01:01:49;;;;;;;4.50;1.30;;;;;;;17.45;47.15;100811.73;1703951;81;25914;-55
2022/05/26 01:04:21;;;;;;;11.08;1.12;;;;;;;17.41;47.25;100806.33;1696926;82;25789;-55
2022/05/26 01:06:53;;;;;;;4.72;1.15;;;;;;;17.39;47.77;100809.73;1706365;84;27480;-55
2022/05/26 01:09:20;;;;;;;3.85;0.90;;;;;;;17.39;47.65;100803.47;1705973;83;25655;-56
2022/05/26 01:11:47;;;;;;;11.78;1.25;;;;;;;17.39;47.62;100797.50;1740392;81;25779;-56
2022/05/26 01:14:25;;;;;;;3.92;1.00;;;;;;;17.41;47.69;100798.67;1753636;81;26747;-55
2022/05/26 01:17:23;;;;;;;2.27;1.07;;;;;;;17.39;47.97;100795.31;1753508;81;25753;-55
2022/05/26 01:20:30;;;;;;;3.22;1.32;;;;;;;17.34;47.79;100793.96;1748251;81;27548;-53
2022/05/26 01:23:15;;;;;;;4.97;1.95;;;;;;;17.31;47.92;100792.13;1756290;81;25704;-55
2022/05/26 01:26:31;;;;;;;2.30;1.00;;;;;;;17.29;48.27;100798.24;1756420;81;25611;-55
2022/05/26 01:29:32;;;;;;;5.45;1.15;;;;;;;17.27;48.12;100801.66;1742496;81;25759;-55
2022/05/26 01:32:08;;;;;;;5.80;1.00;;;;;;;17.17;48.81;100794.57;1701622;82;25830;-55
2022/05/26 01:35:03;;;;;;;3.80;1.10;;;;;;;17.15;48.67;100799.86;1721566;82;28343;-54
2022/05/26 01:38:04;;;;;;;2.72;0.90;;;;;;;17.13;48.69;100807.34;1724617;82;25723;-55
2022/05/26 01:40:36;;;;;;;3.08;0.82;;;;;;;17.12;48.77;100827.42;1732575;82;25822;-54
2022/05/26 01:43:17;;;;;;;6.15;1.20;;;;;;;17.11;48.94;100833.34;1717622;82;26606;-56
2022/05/26 01:45:59;;;;;;;7.03;1.30;;;;;;;17.10;49.16;100831.65;1703606;83;26116;-54
2022/05/26 01:49:05;;;;;;;7.00;1.30;;;;;;;17.01;50.63;100822.70;1724390;82;27539;-55
2022/05/26 01:51:46;;;;;;;12.45;1.40;;;;;;;16.90;50.24;100820.34;1750215;81;25705;-54
2022/05/26 01:54:33;;;;;;;3.72;1.22;;;;;;;16.88;50.08;100828.69;1759294;81;25711;-55
2022/05/26 01:57:11;;;;;;;2.87;1.00;;;;;;;16.87;50.28;100840.57;1764540;79;25815;-55
2022/05/26 01:59:43;;;;;;;3.70;1.00;;;;;;;16.89;49.96;100822.72;1764645;81;25799;-55
2022/05/26 02:02:23;;;;;;;8.65;0.98;;;;;;;16.90;49.84;100826.61;1767505;81;28507;-55
2022/05/26 02:04:55;;;;;;;6.28;1.07;;;;;;;16.87;50.06;100837.85;1768478;81;27350;-55
2022/05/26 02:07:31;;;;;;;8.43;1.10;;;;;;;16.87;49.96;100830.20;1768346;81;25761;-55
2022/05/26 02:10:02;;;;;;;4.00;1.20;;;;;;;16.84;50.98;100836.83;1764176;81;25986;-55
2022/05/26 02:12:33;;;;;;;7.58;1.20;;;;;;;16.78;50.56;100845.70;1747678;81;25976;-53
2022/05/26 02:15:12;;;;;;;5.37;1.20;;;;;;;16.76;51.15;100849.62;1744681;81;27460;-56
2022/05/26 02:17:44;;;;;;;2.65;1.20;;;;;;;16.66;51.15;100852.52;1753872;81;25831;-54
2022/05/26 02:20:28;;;;;;;3.45;0.90;;;;;;;16.65;51.06;100861.69;1753559;81;25787;-54
2022/05/26 02:23:26;;;;;;;5.15;1.32;;;;;;;16.65;51.03;100864.40;1749734;81;25771;-55
2022/05/26 02:25:54;;;;;;;2.45;0.90;;;;;;;16.65;50.91;100870.70;1753080;81;25690;-55
2022/05/26 02:28:21;;;;;;;8.00;1.20;;;;;;;16.62;51.06;100876.47;1745747;79;28167;-55
2022/05/26 02:30:49;;;;;;;2.30;1.12;;;;;;;16.61;51.06;100884.80;1735779;81;25841;-54
2022/05/26 02:33:17;;;;;;;6.45;1.30;;;;;;;16.61;51.01;100894.30;1734961;81;25807;-55
2022/05/26 02:35:48;;;;;;;10.58;2.35;;;;;;;16.61;51.05;100895.66;1734188;81;25784;-56
2022/05/26 02:38:21;;;;;;;9.65;1.40;;;;;;;16.63;51.08;100912.11;1735531;81;25764;-54
2022/05/26 02:40:51;;;;;;;;;;;;;;;16.63;50.94;100904.49;1738250;81;28126;-54
2022/05/26 02:43:25;;;;;;;10.25;1.32;;;;;;;16.60;51.53;100912.45;1735833;82;25995;-55
2022/05/26 02:46:06;;;;;;;4.90;1.15;;;;;;;16.61;51.38;100918.75;1736461;81;25949;-55
2022/05/26 02:49:15;;;;;;;4.60;1.35;;;;;;;16.60;51.41;100945.04;1729908;81;25804;-55
2022/05/26 02:52:11;;;;;;;4.62;1.32;;;;;;;16.62;51.49;100957.95;1732110;82;25789;-54
2022/05/26 02:54:49;;;;;;;4.70;1.25;;;;;;;16.63;52.07;100956.93;1752732;81;27464;-53
2022/05/26 02:57:49;;;;;;;4.33;1.25;;;;;;;16.65;51.81;100948.11;1700769;83;25735;-54
2022/05/26 03:00:18;;;;;;;11.38;1.60;;;;;;;16.67;52.32;100965.09;1700523;84;25768;-55
2022/05/26 03:03:11;;;;;;;8.70;1.70;;;;;;;16.68;53.80;100963.20;1701236;84;25985;-55
2022/05/26 03:05:56;;;;;;;8.10;1.60;;;;;;;16.66;53.32;100968.81;1700808;82;26245;-55
2022/05/26 03:08:27;;;;;;;4.03;1.35;;;;;;;16.68;53.81;100971.36;1676283;82;27662;-55
2022/05/26 03:11:02;;;;;;;3.92;1.45;;;;;;;16.70;54.30;100976.11;1713269;82;25844;-55
2022/05/26 03:13:29;;;;;;;3.60;1.85;;;;;;;16.64;55.04;100965.91;1735270;82;25736;-55
2022/05/26 03:15:56;;;;;;;2.62;1.22;;;;;;;16.60;55.47;100966.77;1735527;81;25770;-55
2022/05/26 03:18:22;;;;;;;6.67;1.62;;;;;;;16.53;56.84;100965.27;1740978;81;25749;-54
2022/05/26 03:20:49;;;;;;;11.95;1.72;;;;;;;16.47;56.32;100968.64;1735308;82;27642;-55
2022/05/26 03:23:16;;;;;;;7.78;2.80;;;;;;;16.46;57.48;100964.75;1736731;81;25716;-56
2022/05/26 03:25:46;;;;;;;15.50;5.35;;;;;;;16.45;57.68;100966.60;1745503;81;25801;-55
2022/05/26 03:28:13;;;;;;;6.37;2.05;;;;;;;16.46;58.58;100963.39;1715880;83;25824;-56
2022/05/26 03:30:41;;;;;;;9.33;1.80;;;;;;;16.44;58.86;100955.43;1735380;82;25529;-55
2022/05/26 03:33:07;;;;;;;3.40;1.62;;;;;;;16.45;60.25;100949.48;1723086;82;27478;-55
2022/05/26 03:40:46;;;;;;;12.88;2.50;;;;;;;16.37;60.43;100976.97;1735408;82;25787;-54
2022/05/26 03:40:58;;;;;;;3.75;1.80;;;;;;;16.33;60.77;100967.98;1725893;81;25857;-56
2022/05/26 03:43:38;;;;;;;7.72;1.30;;;;;;;16.39;61.06;100979.50;1730349;82;26448;-54
2022/05/26 03:46:06;;;;;;;11.78;1.85;;;;;;;16.40;62.20;100976.64;1713614;81;28475;-51
2022/05/26 03:48:34;;;;;;;8.68;2.58;;;;;;;16.39;62.78;100983.09;1705959;84;25816;-53
2022/05/26 03:51:01;;;;;;;13.80;2.60;;;;;;;16.40;63.20;100992.06;1705902;82;25705;-53
2022/05/26 03:53:28;;;;;;;6.22;2.37;;;;;;;16.35;65.73;101012.94;1705869;84;26447;-52
2022/05/26 03:55:55;;;;;;;5.30;2.17;;;;;;;16.37;66.36;101016.34;1721045;82;25728;-53
2022/05/26 03:58:23;;;;;;;10.23;3.15;;;;;;;16.33;66.38;101030.41;1730276;82;28167;-54
2022/05/26 04:00:50;;;;;;;10.20;2.90;;;;;;;16.32;66.17;101032.27;1734191;82;25818;-54
2022/05/26 04:03:17;;;;;;;12.82;3.20;;;;;;;16.37;65.88;101047.56;1734809;82;25454;-53
2022/05/26 04:05:44;;;;;;;15.88;3.65;;;;;;;16.44;65.98;101043.67;1730097;82;25842;-54
2022/05/26 04:08:12;;;;;;;8.45;3.27;;;;;;;16.50;66.15;101045.70;1725339;82;25996;-54
2022/05/26 04:10:39;;;;;;;8.63;3.87;;;;;;;16.57;68.59;101045.89;1700485;84;27503;-54
2022/05/26 04:13:06;;;;;;;8.38;3.22;;;;;;;16.57;70.28;101046.72;1705836;84;26121;-54
2022/05/26 04:15:36;;;;;;;12.47;3.62;;;;;;;16.58;71.29;101044.88;1705806;84;25716;-55
2022/05/26 04:18:03;;;;;;;11.63;4.45;;;;;;;16.58;70.35;101051.14;1701230;84;25979;-55
2022/05/26 04:20:29;;;;;;;10.72;4.42;;;;;;;16.56;71.36;101049.09;1705830;84;25879;-55
2022/05/26 04:22:56;;;;;;;14.78;4.97;;;;;;;16.56;71.86;101051.81;1706210;84;27619;-55
2022/05/26 04:25:25;;;;;;;11.08;4.85;;;;;;;16.62;74.59;101053.00;1705819;84;26505;-55
2022/05/26 04:27:55;;;;;;;10.23;5.30;;;;;;;16.62;76.22;101046.73;1710672;82;25562;-54
2022/05/26 04:30:24;;;;;;;16.82;8.05;;;;;;;16.62;76.23;101048.09;1726408;81;26183;-53
2022/05/26 04:32:52;;;;;;;10.55;6.00;;;;;;;16.63;76.67;101049.80;1734671;82;25833;-55
2022/05/26 04:35:19;;;;;;;7.08;5.35;;;;;;;16.63;77.31;101043.84;1735590;81;28189;-55
2022/05/26 04:37:46;;;;;;;8.05;5.53;;;;;;;16.68;78.72;101050.96;1729815;81;25790;-55
2022/05/26 04:40:14;;;;;;;9.60;5.80;;;;;;;16.70;79.02;101054.89;1735409;81;25743;-55
2022/05/26 04:42:41;;;;;;;10.63;5.33;;;;;;;16.71;80.28;101061.50;1723663;82;25767;-55
2022/05/26 04:45:12;;;;;;;17.17;5.75;;;;;;;16.74;79.19;101045.36;1728565;81;25858;-54
2022/05/26 04:47:38;;;;;;;8.35;6.15;;;;;;;16.76;79.94;101041.14;1720956;81;27486;-55
2022/05/26 04:50:08;;;;;;;10.38;6.22;;;;;;;16.73;80.80;101049.96;1717600;82;25825;-55
2022/05/26 04:52:36;;;;;;;16.20;6.00;;;;;;;16.73;80.60;101049.09;1723206;82;25781;-55
2022/05/26 04:55:06;;;;;;;12.55;6.00;;;;;;;16.77;80.25;101040.95;1731802;82;26883;-54
2022/05/26 04:57:32;;;;;;;8.15;5.40;;;;;;;16.84;79.85;101041.13;1733179;82;25790;-54
2022/05/26 04:59:59;;;;;;;6.80;5.95;;;;;;;16.90;79.88;101037.72;1717246;82;27606;-55
2022/05/26 05:02:27;;;;;;;7.92;4.85;;;;;;;16.93;78.99;101048.29;1764704;81;25715;-55
2022/05/26 05:04:54;;;;;;;10.32;4.70;;;;;;;16.93;78.71;101050.11;1749707;81;25772;-55
2022/05/26 05:07:21;;;;;;;6.83;5.05;;;;;;;16.96;77.79;101045.73;1727903;82;25813;-55
2022/05/26 05:09:48;;;;;;;8.03;4.28;;;;;;;16.99;77.60;101040.80;1732307;81;25850;-54
2022/05/26 05:12:21;;;;;;;7.37;4.25;;;;;;;17.04;77.01;101043.00;1726381;82;27752;-51
2022/05/26 05:14:51;;;;;;;7.08;4.12;;;;;;;17.06;76.86;101043.69;1721930;82;25690;-55
2022/05/26 05:17:21;;;;;;;4.87;4.37;;;;;;;17.07;75.82;101049.46;1721291;83;25797;-55
2022/05/26 05:19:49;;;;;;;5.65;3.58;;;;;;;17.13;76.77;101043.81;1704194;84;26824;-55
2022/05/26 05:22:27;;;;;;;7.33;3.40;;;;;;;17.10;76.26;101038.22;1728201;82;25733;-53
2022/05/26 05:25:09;;;;;;;8.80;3.12;;;;;;;17.07;75.81;101043.16;1738652;82;27458;-54
2022/05/26 05:27:59;;;;;;;4.58;2.72;;;;;;;17.10;76.13;101046.38;1718626;81;25794;-55
2022/05/26 05:30:37;;;;;;;5.12;2.72;;;;;;;17.10;75.55;101048.26;1733126;82;25781;-54
2022/05/26 05:33:15;;;;;;;3.05;2.58;;;;;;;17.15;75.33;101060.81;1731870;82;25877;-55
2022/05/26 05:35:59;;;;;;;2.50;2.30;;;;;;;17.19;74.96;101060.30;1728639;82;25894;-55
2022/05/26 05:38:27;;;;;;;3.92;2.62;;;;;;;17.16;74.05;101053.86;1732810;82;28932;-54
2022/05/26 05:40:54;;;;;;;2.52;2.05;;;;;;;17.13;72.62;101065.07;1736886;82;25926;-54
2022/05/26 05:43:21;;;;;;;8.68;2.20;;;;;;;17.12;72.37;101062.02;1737906;82;25525;-55
2022/05/26 05:45:48;;;;;;;4.53;2.50;;;;;;;17.17;72.66;101069.12;1736770;82;27989;-55
2022/05/26 05:48:15;;;;;;;3.50;2.80;;;;;;;17.15;72.02;101075.27;1724456;82;25467;-55
2022/05/26 05:50:41;;;;;;;7.55;3.20;;;;;;;17.11;71.61;101079.86;1727089;82;27466;-54
2022/05/26 05:53:09;;;;;;;7.08;2.80;;;;;;;17.03;71.72;101082.06;1731673;82;25763;-55
2022/05/26 05:55:36;;;;;;;4.45;2.75;;;;;;;17.05;71.67;101082.75;1729070;82;25776;-55
2022/05/26 05:58:07;;;;;;;9.60;2.87;;;;;;;17.07;71.37;101086.16;1737574;81;25876;-56
2022/05/26 06:00:31;;;;;;;4.62;3.00;;;;;;;17.07;70.83;101099.74;1733356;81;25725;-55
2022/05/26 06:02:58;;;;;;;4.37;3.35;;;;;;;17.12;70.64;101097.87;1736497;82;27466;-56
2022/05/26 06:05:25;;;;;;;4.78;3.40;;;;;;;17.18;70.86;101107.52;1737257;82;25955;-55
2022/05/26 06:07:53;;;;;;;5.53;3.40;;;;;;;17.23;70.51;101114.33;1742164;82;25444;-56
2022/05/26 06:10:20;;;;;;;10.00;3.75;;;;;;;17.27;70.07;101115.67;1718533;82;25800;-54
2022/05/26 06:12:47;;;;;;;5.90;3.20;;;;;;;17.38;69.84;101121.28;1719838;82;25874;-55
2022/05/26 06:15:14;;;;;;;6.47;3.47;;;;;;;17.51;69.78;101112.92;1727674;81;28463;-55
2022/05/26 06:17:42;;;;;;;6.40;3.62;;;;;;;17.56;69.34;101124.65;1747059;81;25970;-55
2022/05/26 06:20:11;;;;;;;7.42;3.87;;;;;;;17.66;68.94;101121.72;1739739;81;25777;-55
2022/05/26 06:22:45;;;;;;;4.65;3.35;;;;;;;17.78;68.42;101133.07;1740711;81;26719;-54
2022/05/26 06:25:15;;;;;;;5.25;3.27;;;;;;;17.83;67.78;101130.16;1729066;81;25881;-55
2022/05/26 06:30:32;;;;;;;4.58;3.42;;;;;;;17.99;66.92;101138.82;1733456;81;25821;-53
2022/05/26 06:38:36;;;;;;;9.65;2.90;;;;;;;17.86;65.69;101152.09;1749219;81;25711;-55
2022/05/26 06:43:52;;;;;;;4.58;2.90;;;;;;;17.57;66.03;101159.48;1753730;81;25730;-54
2022/05/26 06:46:20;;;;;;;2.72;2.40;;;;;;;17.58;66.23;101157.11;1742010;81;26568;-55
2022/05/26 06:48:48;;;;;;;3.55;2.90;;;;;;;17.65;66.15;101163.05;1721248;81;25820;-55
2022/05/26 06:51:15;;;;;;;4.35;2.67;;;;;;;17.67;65.91;101180.02;1702807;83;25855;-56
2022/05/26 06:53:43;;;;;;;3.15;2.37;;;;;;;17.57;65.57;101178.53;1715793;82;27658;-55
2022/05/26 06:56:11;;;;;;;4.65;2.75;;;;;;;17.54;65.96;101181.09;1719601;81;25743;-55
2022/05/26 06:58:38;;;;;;;7.72;2.40;;;;;;;17.50;66.04;101187.38;1713777;81;26042;-55
2022/05/26 07:01:04;;;;;;;6.22;2.35;;;;;;;17.45;66.07;101190.27;1717571;82;25795;-55
2022/05/26 07:03:31;;;;;;;4.20;2.22;;;;;;;17.43;66.16;101197.25;1722085;82;25773;-55
2022/05/26 07:05:58;;;;;;;3.72;2.00;;;;;;;17.40;65.48;101199.44;1736243;81;27511;-54
2022/05/26 07:08:25;;;;;;;2.87;1.90;;;;;;;17.32;65.25;101209.83;1726691;81;25523;-55
2022/05/26 07:10:54;;;;;;;3.70;2.40;;;;;;;17.38;65.45;101213.22;1727215;82;25472;-55
2022/05/26 07:13:21;;;;;;;2.70;1.95;;;;;;;17.42;64.73;101213.72;1700983;83;26476;-53
2022/05/26 07:15:47;;;;;;;2.02;1.65;;;;;;;17.48;64.55;101217.98;1722667;82;25806;-54
2022/05/26 07:18:14;;;;;;;2.47;1.67;;;;;;;17.49;64.15;101221.04;1718678;83;27439;-55
2022/05/26 07:20:41;;;;;;;5.20;2.47;;;;;;;17.52;64.23;101230.23;1720380;82;25469;-54
2022/05/26 07:23:10;;;;;;;2.67;1.92;;;;;;;17.53;64.30;101222.38;1731581;82;25689;-55
2022/05/26 07:25:43;;;;;;;2.58;2.37;;;;;;;17.53;64.01;101236.50;1732263;82;25825;-54
2022/05/26 07:28:15;;;;;;;10.88;1.70;;;;;;;17.52;64.11;101237.52;1731359;80;25781;-54
2022/05/26 07:30:41;;;;;;;2.10;1.80;;;;;;;17.44;64.39;101241.08;1717089;81;27669;-54
2022/05/26 07:33:09;;;;;;;3.52;1.80;;;;;;;17.40;64.22;101246.53;1725138;82;25846;-56
2022/05/26 07:35:36;;;;;;;2.95;1.90;;;;;;;17.44;64.29;101247.88;1720075;82;25667;-54
2022/05/26 07:43:38;;;;;;;3.98;1.87;;;;;;;17.92;63.27;101248.52;1726030;82;28516;-56
2022/05/26 07:46:06;;;;;;;9.00;1.90;;;;;;;18.12;62.63;101253.97;1727511;82;25819;-56
2022/05/26 07:48:33;;;;;;;4.35;1.80;;;;;;;18.08;62.15;101254.48;1732109;82;25807;-56
2022/05/26 07:51:00;;;;;;;3.10;1.80;;;;;;;17.96;62.10;101254.01;1732489;82;25823;-56
2022/05/26 07:53:26;;;;;;;3.00;1.90;;;;;;;18.04;62.03;101265.38;1733046;82;26178;-56
2022/05/26 07:55:53;;;;;;;2.67;1.85;;;;;;;18.08;61.67;101264.02;1761491;79;27639;-55
2022/05/26 07:58:20;;;;;;;2.27;1.67;;;;;;;18.20;61.73;101260.41;1765289;81;25804;-56
2022/05/26 08:00:47;;;;;;;2.02;1.55;;;;;;;18.22;61.53;101265.17;1763628;81;25496;-56
2022/05/26 08:03:13;;;;;;;3.37;2.00;;;;;;;18.15;61.35;101274.02;1766094;81;26776;-56
2022/05/26 08:05:40;;;;;;;2.92;1.60;;;;;;;18.11;61.08;101263.65;1766587;81;25639;-56
2022/05/26 08:08:08;;;;;;;3.00;1.70;;;;;;;18.17;61.15;101281.16;1762433;81;27373;-55
2022/05/26 08:10:36;;;;;;;2.27;1.67;;;;;;;18.15;61.00;101284.07;1752527;81;25531;-55
2022/05/26 08:13:02;;;;;;;5.35;1.60;;;;;;;18.15;61.12;101291.72;1754438;81;25770;-56
2022/05/26 08:15:31;;;;;;;3.92;2.00;;;;;;;18.10;60.80;101302.81;1740719;81;25784;-56
2022/05/26 08:17:58;;;;;;;1.70;1.60;;;;;;;18.12;60.37;101298.89;1762539;81;25729;-55
2022/05/26 08:20:25;;;;;;;6.50;1.57;;;;;;;18.27;60.27;101291.36;1758551;81;28129;-53
2022/05/26 08:22:52;;;;;;;1.65;1.52;;;;;;;18.67;59.64;101286.80;1762309;81;25789;-55
2022/05/26 08:25:19;;;;;;;6.20;1.60;;;;;;;18.99;59.17;101289.56;1762372;81;25674;-56
2022/05/26 08:27:46;;;;;;;8.25;1.65;;;;;;;19.46;58.40;101290.44;1752493;81;25956;-55
2022/05/26 08:30:15;;;;;;;1.47;1.30;;;;;;;19.73;57.10;101279.98;1731733;82;25707;-55
2022/05/26 08:32:43;;;;;;;1.77;1.37;;;;;;;19.96;57.19;101283.53;1734668;82;27469;-56
2022/05/26 08:35:12;;;;;;;1.60;1.30;;;;;;;20.07;55.16;101279.52;1735891;82;25438;-55
2022/05/26 08:37:39;;;;;;;5.60;1.72;;;;;;;20.12;54.97;101291.25;1736002;82;25803;-54
2022/05/26 08:40:08;;;;;;;1.65;1.32;;;;;;;20.11;54.29;101292.28;1735940;81;25796;-56
2022/05/26 08:42:37;;;;;;;1.90;1.40;;;;;;;20.02;53.44;101287.41;1735796;81;25940;-55
2022/05/26 08:45:09;;;;;;;4.58;1.65;;;;;;;20.02;53.81;101290.13;1735331;82;27461;-55
2022/05/26 08:47:43;;;;;;;6.08;1.25;;;;;;;20.07;54.04;101288.21;1677393;84;26193;-55
2022/05/26 08:50:21;;;;;;;4.87;1.30;;;;;;;20.28;53.93;101299.27;1706523;82;25787;-55
2022/05/26 08:53:02;;;;;;;6.92;1.98;;;;;;;20.30;53.19;101299.93;1706500;82;25866;-55
2022/05/26 08:55:44;;;;;;;10.23;1.65;;;;;;;20.29;52.18;101294.13;1715678;82;25711;-55
2022/05/26 08:58:21;;;;;;;3.20;2.12;;;;;;;20.26;51.73;101297.23;1735895;82;27470;-55
2022/05/26 09:00:51;;;;;;;3.70;1.95;;;;;;;20.26;52.30;101293.66;1734378;81;25826;-55
2022/05/26 09:03:26;;;;;;;7.17;1.98;;;;;;;20.40;51.53;101299.64;1735636;82;25616;-55
2022/05/26 09:06:10;;;;;;;5.30;2.75;;;;;;;20.27;51.23;101296.20;1735424;82;25949;-55
2022/05/26 09:14:38;;;;;;;3.80;1.70;;;;;;;20.79;50.38;101300.38;1729444;82;26106;-55
2022/05/26 09:17:11;;;;;;;10.75;2.05;;;;;;;20.76;50.12;101303.48;1731951;81;25774;-55
2022/05/26 09:19:52;;;;;;;5.75;1.47;;;;;;;20.74;49.40;101294.66;1727529;82;26484;-55
2022/05/26 09:22:33;;;;;;;7.87;1.45;;;;;;;20.71;49.35;101294.45;1732867;81;25517;-54
2022/05/26 09:25:00;;;;;;;4.58;1.50;;;;;;;20.99;50.19;101306.62;1735709;81;28112;-55
2022/05/26 09:27:36;;;;;;;8.90;1.62;;;;;;;21.51;49.21;101292.34;1736045;81;25795;-55
2022/05/26 09:30:24;;;;;;;6.67;2.08;;;;;;;22.02;48.33;101288.55;1714912;81;25663;-55
2022/05/26 09:32:51;;;;;;;7.58;1.30;;;;;;;22.48;47.37;101290.77;1735004;82;25789;-55
2022/05/26 09:35:29;;;;;;;2.12;1.07;;;;;;;23.07;44.80;101292.60;1734746;81;25800;-55
2022/05/26 09:38:02;;;;;;;2.00;1.00;;;;;;;23.35;45.12;101303.13;1734639;81;27075;-55
2022/05/26 09:40:34;;;;;;;9.08;1.52;;;;;;;23.78;42.93;101295.05;1735221;82;25808;-54
2022/05/26 09:43:08;;;;;;;9.70;1.50;;;;;;;23.87;41.55;101302.02;1735916;82;25809;-54
2022/05/26 09:45:57;;;;;;;11.70;1.27;;;;;;;23.89;41.63;101295.78;1729141;82;25809;-55
2022/05/26 09:48:35;;;;;;;8.48;1.20;;;;;;;24.01;41.52;101288.60;1703805;82;25732;-55
2022/05/26 09:51:26;;;;;;;6.17;1.20;;;;;;;24.03;42.45;101287.87;1703889;83;28154;-56
2022/05/26 09:53:55;;;;;;;6.60;1.60;;;;;;;24.17;41.16;101291.95;1704078;82;25759;-55
2022/05/26 09:56:43;;;;;;;3.55;1.20;;;;;;;24.11;41.17;101284.58;1725604;82;25706;-55
2022/05/26 09:59:32;;;;;;;7.10;1.35;;;;;;;24.66;40.96;101283.68;1734716;82;25782;-55
2022/05/26 10:02:28;;;;;;;15.85;1.22;;;;;;;24.87;38.62;101278.11;1736361;82;25471;-54
2022/05/26 10:05:24;;;;;;;7.12;1.37;;;;;;;24.95;38.55;101276.48;1735831;82;27619;-55
2022/05/26 10:08:05;;;;;;;3.15;1.10;;;;;;;25.21;39.00;101273.25;1735508;81;25506;-54
2022/05/26 10:10:54;;;;;;;5.30;0.93;;;;;;;25.52;37.19;101266.91;1733924;81;25711;-55
2022/05/26 10:13:50;;;;;;;9.98;1.22;;;;;;;25.75;36.41;101274.56;1718633;82;25823;-55
2022/05/26 10:16:28;;;;;;;2.65;0.90;;;;;;;26.41;36.41;101261.72;1728155;81;25756;-55
2022/05/26 10:19:16;;;;;;;1.90;0.90;;;;;;;27.23;34.77;101260.45;1724511;82;27447;-55
2022/05/26 10:22:08;;;;;;;9.78;1.20;;;;;;;27.86;33.13;101263.70;1699269;83;25735;-55
2022/05/26 10:24:46;;;;;;;7.97;1.35;;;;;;;28.22;32.01;101260.92;1709791;82;25697;-54
2022/05/26 10:27:34;;;;;;;6.28;1.00;;;;;;;28.42;32.28;101264.14;1702047;83;25922;-55
2022/05/26 10:30:07;;;;;;;2.47;1.02;;;;;;;28.94;31.25;101260.21;1693814;84;25788;-55
2022/05/26 10:32:44;;;;;;;2.53;1.30;;;;;;;29.51;31.82;101275.94;1700891;84;27673;-55
2022/05/26 10:35:29;;;;;;;6.80;1.07;;;;;;;30.03;30.38;101255.96;1701570;83;25755;-55
2022/05/26 10:38:16;;;;;;;3.12;1.12;;;;;;;30.39;29.62;101269.77;1701905;84;26095;-55
2022/05/26 10:41:03;;;;;;;2.37;0.88;;;;;;;30.25;27.76;101269.33;1716964;81;26636;-55
2022/05/26 10:43:50;;;;;;;6.05;1.45;;;;;;;30.58;28.83;101268.94;1712738;83;25812;-56
2022/05/26 10:46:20;;;;;;;3.42;1.05;;;;;;;31.06;26.97;101272.53;1722124;81;29594;-55
2022/05/26 10:49:07;;;;;;;4.72;1.35;;;;;;;30.55;27.60;101272.23;1675092;85;25605;-55
2022/05/26 10:52:02;;;;;;;3.35;0.98;;;;;;;30.54;27.49;101276.09;1711418;81;25757;-55
2022/05/26 10:54:56;;;;;;;6.65;1.62;;;;;;;30.34;27.69;101273.87;1723989;81;25794;-55
2022/05/26 10:57:49;;;;;;;3.50;1.25;;;;;;;30.27;28.24;101260.73;1726113;82;25813;-55
2022/05/26 11:00:20;;;;;;;6.20;1.07;;;;;;;30.93;28.86;101264.03;1727078;80;27466;-55
2022/05/26 11:03:01;;;;;;;5.92;1.00;;;;;;;31.60;26.74;101268.03;1743174;81;25777;-55
2022/05/26 11:05:48;;;;;;;2.20;1.00;;;;;;;31.66;26.68;101263.61;1697321;83;25917;-56
2022/05/26 11:08:37;;;;;;;3.20;1.05;;;;;;;32.05;25.47;101256.94;1711200;83;25794;-55
2022/05/26 11:11:18;;;;;;;3.02;1.02;;;;;;;32.25;25.58;101266.00;1707828;83;26444;-55
2022/05/26 11:14:01;;;;;;;2.83;1.30;;;;;;;32.68;25.24;101270.63;1733161;82;56160;-55
2022/05/26 11:19:49;;;;;;;6.50;1.05;;;;;;;33.14;23.38;101258.76;1728370;82;25712;-55
2022/05/26 11:22:18;;;;;;;2.87;0.88;;;;;;;32.70;24.13;101250.30;1699654;81;25834;-55
2022/05/26 11:24:55;;;;;;;1.10;0.70;;;;;;;32.89;24.00;101250.64;1735335;82;25806;-56
2022/05/26 11:27:52;;;;;;;2.42;0.75;;;;;;;33.13;23.73;101250.14;1723205;82;27450;-56
2022/05/26 11:36:32;;;;;;;6.72;1.17;;;;;;;33.73;23.41;101244.83;1731706;82;25804;-56
2022/05/26 11:39:01;;;;;;;0.88;0.53;;;;;;;34.13;22.64;101243.10;1736981;81;26094;-56
2022/05/26 11:41:42;;;;;;;2.92;0.72;;;;;;;34.40;22.71;101241.91;1738144;82;28360;-56
2022/05/26 11:44:11;;;;;;;4.78;0.95;;;;;;;34.84;20.75;101238.03;1731832;81;25925;-56
2022/05/26 11:47:00;;;;;;;3.67;0.60;;;;;;;34.41;20.59;101239.39;1738354;81;26153;-56
2022/05/26 11:49:46;;;;;;;7.15;0.50;;;;;;;34.13;21.05;101235.27;1736697;81;25877;-57
2022/05/26 11:52:38;;;;;;;3.83;0.62;;;;;;;34.38;21.68;101232.12;1737057;81;25551;-56
2022/05/26 11:55:19;;;;;;;9.43;0.90;;;;;;;35.31;20.88;101228.21;1741555;81;29709;-56
2022/05/26 11:57:53;;;;;;;3.77;0.70;;;;;;;36.06;19.48;101221.05;1768671;81;25726;-56
2022/05/26 12:00:40;;;;;;;1.27;0.60;;;;;;;35.97;18.65;101227.31;1762417;81;25535;-56
2022/05/26 12:03:27;;;;;;;1.57;0.60;;;;;;;36.21;19.90;101228.42;1769068;81;25864;-56
2022/05/26 12:06:14;;;;;;;2.35;0.70;;;;;;;36.70;19.06;101213.23;1764008;81;25753;-55
2022/05/26 12:08:58;;;;;;;0.62;0.50;;;;;;;37.25;19.01;101212.65;1768909;81;27650;-57
2022/05/26 12:11:59;;;;;;;5.78;0.80;;;;;;;36.97;17.82;101221.55;1762150;81;25988;-56
2022/05/26 12:14:40;;;;;;;2.17;0.50;;;;;;;36.91;17.44;101229.75;1761579;79;25758;-56
2022/05/26 12:17:34;;;;;;;5.83;0.98;;;;;;;36.61;17.83;101222.88;1767738;81;25885;-57
2022/05/26 12:20:16;;;;;;;1.47;0.57;;;;;;;37.01;17.48;101216.97;1766080;81;25790;-55
2022/05/26 12:22:57;;;;;;;19.95;1.92;;;;;;;37.20;17.24;101220.31;1767967;81;27491;-56
2022/05/26 12:25:31;;;;;;;8.03;1.40;;;;;;;37.55;16.88;101216.64;1762891;81;25335;-57
2022/05/26 12:28:16;;;;;;;4.87;1.40;;;;;;;37.39;17.59;101223.94;1756196;81;25919;-56
2022/05/26 12:30:52;;;;;;;4.17;0.82;;;;;;;37.56;17.23;101216.34;1702282;84;25828;-56
2022/05/26 12:33:39;;;;;;;3.33;0.80;;;;;;;37.94;17.21;101209.75;1704291;84;25831;-56